Flight Track Log - Related Links

Times and Time Zones

All times are in EDT time to prevent confusion due to time zone crossing. See the EGF3918 flight status page for this flight to view local times or setup timezone preferences in your user account.

Time Position Orientation Groundspeed Altitude Reporting Facility
EDT Latitude Longitude Course Direction KTS MPH feet Rate Location/Type
Thu 11:43:32 PM 41.9540 -87.8374 239° Southwest  Level FlightAware Approximate
Thu 11:44:07 PM 41.9333 -87.8833 92° East 173 199 2,500  Level Chicago TRACON
Thu 11:48:56 PM 41.9197 -87.4328 84° East 262 302 9,700 1,479 Climbing Chicago Center
Thu 11:49:56 PM 41.9281 -87.3181 85° East 285 328 11,100 1,450 Climbing Chicago Center
Thu 11:50:56 PM 41.9364 -87.1950 90° East 317 365 12,600 1,550 Climbing Chicago Center
Thu 11:51:56 PM 41.9358 -87.0611 101° East 342 394 14,200 1,650 Climbing Chicago Center
Thu 11:52:56 PM 41.9164 -86.9278 99° East 354 407 15,900 1,650 Climbing Chicago Center
Thu 11:53:56 PM 41.9008 -86.7944 98° East 359 413 17,500 1,500 Climbing Chicago Center
Thu 11:54:56 PM 41.8875 -86.6639 99° East 375 432 18,900 1,450 Climbing Chicago Center
Thu 11:55:56 PM 41.8717 -86.5278 117° Southeast 375 432 20,400 1,600 Climbing Chicago Center
Thu 11:56:56 PM 41.8247 -86.4017 132° Southeast 366 421 22,100 1,500 Climbing Chicago Center
Thu 11:57:56 PM 41.7511 -86.2908 134° Southeast 392 451 23,400 1,250 Climbing Chicago Center
Thu 11:58:56 PM 41.6664 -86.1725 132° Southeast 418 481 24,600 800 Climbing Chicago Center
Thu 11:59:56 PM 41.5858 -86.0544 133° Southeast 433 498 25,000 200 Climbing Chicago Center
Fri 12:00:56 AM 41.4967 -85.9286 133° Southeast 450 518 25,000  Level Chicago Center
Fri 12:01:56 AM 41.4031 -85.7950 133° Southeast 478 550 25,000 -150 Level Chicago Center
Fri 12:02:56 AM 41.3111 -85.6619 133° Southeast 490 564 24,700 -700 Descending Chicago Center
Fri 12:03:56 AM 41.2150 -85.5267 130° Southeast 502 578 23,600 -1,380 Descending Chicago Center
Fri 12:06:16 AM 41.0086 -85.1958 129° Southeast 480 552 20,100 -1,470 Descending Indianapolis Center
Fri 12:07:16 AM 40.9394 -85.0817 140° Southeast 469 540 18,700 -1,450 Descending Indianapolis Center
Fri 12:08:16 AM 40.8428 -84.9753 151° Southeast 452 520 17,200 -1,600 Descending Indianapolis Center
Fri 12:09:16 AM 40.7333 -84.8961 150° Southeast 443 510 15,500 -1,245 Descending Indianapolis Center
Fri 12:10:02 AM 40.6422 -84.8261 149° Southeast 432 497 15,000 -297 Descending Indianapolis Center
Fri 12:10:57 AM 40.5514 -84.7533 146° Southeast 423 487 15,000 -414 Level Indianapolis Center
Fri 12:11:58 AM 40.4564 -84.6700 141° Southeast 412 474 14,200 -1,636 Descending Indianapolis Center
Fri 12:12:58 AM 40.3717 -84.5786 140° Southeast 388 447 11,700 -1,983 Descending Indianapolis Center
Fri 12:13:59 AM 40.2933 -84.4931 140° Southeast 369 425 10,200 -843 Descending Indianapolis Center
Fri 12:14:59 AM 40.2147 -84.4078 142° Southeast 372 428 10,000 -595 Descending Indianapolis Center
Fri 12:16:00 AM 40.1483 -84.3392 138° Southeast 306 352 9,000 -1,736 Descending Indianapolis Center
Fri 12:17:00 AM 40.0906 -84.2706 142° Southeast 283 326 6,500 -2,603 Descending Indianapolis Center
Fri 12:18:16 AM 40.0139 -84.1914 161° South 271 312 3,100 -1,985 Descending Indianapolis Center
Fri 12:19:16 AM 39.9639 -84.1692 201° Southwest 222 255 2,000 -849 Descending Indianapolis Center
Fri 12:20:02 AM 39.9325 -84.1853 155° Southeast 154 177 1,600 4,500 Descending Indianapolis Center
Fri 12:21:16 AM 39.8597 -84.1411 155° Southeast 185 213 11,000 7,622 Climbing Indianapolis Center

Login

Don't have an account? Register now (free) for customized features, flight alerts, and more!